createdAt,value
2022-08-27T00:01:46.835Z,58.23
2022-08-27T00:04:13.972Z,58.38
2022-08-27T00:06:41.152Z,58.81
2022-08-27T00:09:08.346Z,58.93
2022-08-27T00:11:37.334Z,59.31
2022-08-27T00:14:05.299Z,59.20
2022-08-27T00:16:32.863Z,59.46
2022-08-27T00:19:00.063Z,59.89
2022-08-27T00:21:27.208Z,60.09
2022-08-27T00:23:54.225Z,60.47
2022-08-27T00:26:21.425Z,60.25
2022-08-27T00:28:48.826Z,60.74
2022-08-27T00:31:16.057Z,61.13
2022-08-27T00:33:43.695Z,61.15
2022-08-27T00:36:12.721Z,60.51
2022-08-27T00:38:41.453Z,60.92
2022-08-27T00:41:12.014Z,61.12
2022-08-27T00:44:00.335Z,61.10
2022-08-27T00:46:47.019Z,61.81
2022-08-27T00:49:32.657Z,62.32
2022-08-27T00:52:27.328Z,61.43
2022-08-27T00:55:08.944Z,62.34
2022-08-27T00:57:39.164Z,62.06
2022-08-27T01:00:12.237Z,62.33
2022-08-27T01:02:39.393Z,62.03
2022-08-27T01:05:12.121Z,61.83
2022-08-27T01:07:45.613Z,62.51
2022-08-27T01:10:18.555Z,62.32
2022-08-27T01:12:53.517Z,62.45
2022-08-27T01:15:23.897Z,62.80
2022-08-27T01:17:51.945Z,62.57
2022-08-27T01:20:30.181Z,63.28
2022-08-27T01:23:41.800Z,62.68
2022-08-27T01:26:13.271Z,63.07
2022-08-27T01:28:41.215Z,63.71
2022-08-27T01:31:10.786Z,64.49
2022-08-27T01:33:39.214Z,64.22
2022-08-27T01:36:08.289Z,64.64
2022-08-27T01:38:35.583Z,64.89
2022-08-27T01:41:03.887Z,64.83
2022-08-27T01:43:31.883Z,65.81
2022-08-27T01:46:00.472Z,65.69
2022-08-27T01:48:27.512Z,65.97
2022-08-27T01:50:54.620Z,66.07
2022-08-27T01:53:26.137Z,66.16
2022-08-27T01:55:54.717Z,65.80
2022-08-27T01:58:27.390Z,65.88
2022-08-27T02:01:02.938Z,66.80
2022-08-27T02:03:30.116Z,66.85
2022-08-27T02:05:57.886Z,67.28
2022-08-27T02:08:24.985Z,67.72
2022-08-27T02:10:52.332Z,67.29
2022-08-27T02:13:19.414Z,67.08
2022-08-27T02:15:46.747Z,67.62
2022-08-27T02:18:15.093Z,68.26
2022-08-27T02:20:45.480Z,68.18
2022-08-27T02:23:13.627Z,67.49
2022-08-27T02:25:41.657Z,69.39
2022-08-27T02:28:09.645Z,68.98
2022-08-27T02:30:37.721Z,69.71
2022-08-27T02:33:06.048Z,69.69
2022-08-27T02:35:39.015Z,69.71
2022-08-27T02:38:08.164Z,70.50
2022-08-27T02:40:36.249Z,71.37
2022-08-27T02:43:04.599Z,71.45
2022-08-27T02:45:31.699Z,72.34
2022-08-27T02:47:58.799Z,72.15
2022-08-27T02:50:27.482Z,72.40
2022-08-27T02:52:54.949Z,72.95
2022-08-27T02:55:22.793Z,73.33
2022-08-27T02:57:49.872Z,73.64
2022-08-27T03:00:21.157Z,73.07
2022-08-27T03:02:49.202Z,73.08
2022-08-27T03:05:17.944Z,73.98
2022-08-27T03:07:45.567Z,74.46
2022-08-27T03:10:17.029Z,74.26
2022-08-27T03:12:45.298Z,74.00
2022-08-27T03:15:18.744Z,74.17
2022-08-27T03:18:04.580Z,74.03
2022-08-27T03:20:32.032Z,74.01
2022-08-27T03:23:00.391Z,74.53
2022-08-27T03:25:27.958Z,76.24
2022-08-27T03:27:55.105Z,75.29
2022-08-27T03:30:24.093Z,74.56
2022-08-27T03:32:51.886Z,75.33
2022-08-27T03:35:20.783Z,76.17
2022-08-27T03:37:48.219Z,75.67
2022-08-27T03:40:17.032Z,75.69
2022-08-27T03:42:44.316Z,75.29
2022-08-27T03:45:12.096Z,75.43
2022-08-27T03:47:39.423Z,75.69
2022-08-27T03:50:08.107Z,75.95
2022-08-27T03:52:37.183Z,75.92
2022-08-27T03:55:07.713Z,75.73
2022-08-27T03:57:34.830Z,76.10
2022-08-27T04:00:02.028Z,74.70
2022-08-27T04:02:29.749Z,73.50
2022-08-27T04:04:57.888Z,73.47
2022-08-27T04:07:25.279Z,73.28
2022-08-27T04:09:52.349Z,70.83
2022-08-27T04:12:19.615Z,69.03
2022-08-27T04:14:46.776Z,66.19
2022-08-27T04:17:14.123Z,64.51
2022-08-27T04:19:41.174Z,63.63
2022-08-27T04:22:08.844Z,61.79
2022-08-27T04:24:37.872Z,59.43
2022-08-27T04:27:06.457Z,57.57
2022-08-27T04:29:34.328Z,57.21
2022-08-27T04:32:02.098Z,58.61
2022-08-27T04:34:29.369Z,60.11
2022-08-27T04:36:57.420Z,58.71
2022-08-27T04:39:26.514Z,58.67
2022-08-27T04:41:56.902Z,59.12
2022-08-27T04:44:30.807Z,57.50
2022-08-27T04:47:01.655Z,54.85
2022-08-27T04:49:29.986Z,50.65
2022-08-27T04:51:59.057Z,46.60
2022-08-27T04:54:32.907Z,44.46
2022-08-27T04:57:04.890Z,42.10
2022-08-27T04:59:33.271Z,40.71
2022-08-27T05:02:04.593Z,38.49
2022-08-27T05:04:34.582Z,37.35
2022-08-27T05:07:02.339Z,37.00
2022-08-27T05:09:29.555Z,35.43
2022-08-27T05:11:56.827Z,34.76
2022-08-27T05:14:25.483Z,33.38
2022-08-27T05:16:52.558Z,33.54
2022-08-27T05:19:19.724Z,33.02
2022-08-27T05:21:50.988Z,32.51
2022-08-27T05:24:18.507Z,30.73
2022-08-27T05:26:46.252Z,30.74
2022-08-27T05:29:14.299Z,31.38
2022-08-27T05:31:41.805Z,28.80
2022-08-27T05:34:10.665Z,28.56
2022-08-27T05:36:47.834Z,27.66
2022-08-27T05:39:17.287Z,26.65
2022-08-27T05:41:44.294Z,26.32
2022-08-27T05:44:39.504Z,26.04
2022-08-27T05:46:58.752Z,24.99
2022-08-27T05:49:26.105Z,24.40
2022-08-27T05:51:53.225Z,24.98
2022-08-27T05:54:20.416Z,26.20
2022-08-27T05:56:50.121Z,25.14
2022-08-27T05:59:37.209Z,24.46
2022-08-27T06:02:06.311Z,24.89
2022-08-27T06:04:33.810Z,26.30
2022-08-27T06:07:00.980Z,24.93
2022-08-27T06:09:29.750Z,25.71
2022-08-27T06:12:01.622Z,29.63
2022-08-27T06:14:29.254Z,30.59
2022-08-27T06:16:57.088Z,29.47
2022-08-27T06:19:24.521Z,28.22
2022-08-27T06:22:00.656Z,24.91
2022-08-27T06:24:39.098Z,23.84
2022-08-27T06:27:06.500Z,22.86
2022-08-27T06:29:35.246Z,21.92
2022-08-27T06:32:02.656Z,22.74
2022-08-27T06:34:29.821Z,25.32
2022-08-27T06:36:57.028Z,28.41
2022-08-27T06:39:24.126Z,30.00
2022-08-27T06:41:51.300Z,31.17
2022-08-27T06:44:18.552Z,32.08
2022-08-27T06:46:45.896Z,30.92
2022-08-27T06:49:13.711Z,31.12
2022-08-27T06:51:47.244Z,31.20
2022-08-27T06:54:16.829Z,30.89
2022-08-27T06:56:45.686Z,26.94
2022-08-27T06:59:17.531Z,24.94
2022-08-27T07:01:49.561Z,24.52
2022-08-27T07:04:32.605Z,23.42
2022-08-27T07:07:02.319Z,23.79
2022-08-27T07:09:32.158Z,23.58
2022-08-27T07:12:00.240Z,23.07
2022-08-27T07:14:27.509Z,22.70
2022-08-27T07:16:55.494Z,22.89
2022-08-27T07:19:22.695Z,23.16
2022-08-27T07:21:50.755Z,22.65
2022-08-27T07:24:19.146Z,22.78
2022-08-27T07:26:46.960Z,23.79
2022-08-27T07:29:15.266Z,22.93
2022-08-27T07:31:43.851Z,22.09
2022-08-27T07:34:12.121Z,22.58
2022-08-27T07:36:41.142Z,23.30
2022-08-27T07:39:09.312Z,22.70
2022-08-27T07:41:56.854Z,23.60
2022-08-27T07:44:30.973Z,23.34
2022-08-27T07:47:00.733Z,25.10
2022-08-27T07:49:29.528Z,24.50
2022-08-27T07:51:56.705Z,24.67
2022-08-27T07:54:25.344Z,25.91
2022-08-27T07:56:55.124Z,27.40
2022-08-27T07:59:27.465Z,26.73
2022-08-27T08:01:56.464Z,25.42
2022-08-27T08:04:25.159Z,24.46
2022-08-27T08:06:53.030Z,25.58
2022-08-27T08:09:22.445Z,24.60
2022-08-27T08:11:50.669Z,24.63
2022-08-27T08:14:19.811Z,23.90
2022-08-27T08:16:46.942Z,24.46
2022-08-27T08:19:14.250Z,23.46
2022-08-27T08:21:42.810Z,24.31
2022-08-27T08:24:10.269Z,25.52
2022-08-27T08:26:37.333Z,25.15
2022-08-27T08:29:05.305Z,25.64
2022-08-27T08:31:32.924Z,26.10
2022-08-27T08:34:00.974Z,25.55
2022-08-27T08:36:28.054Z,25.72
2022-08-27T08:38:55.477Z,26.69
2022-08-27T08:41:31.017Z,26.33
2022-08-27T08:44:04.804Z,26.37
2022-08-27T08:47:12.233Z,26.65
2022-08-27T08:49:51.790Z,26.76
2022-08-27T08:52:52.075Z,26.24
2022-08-27T08:55:48.646Z,26.84
2022-08-27T08:58:31.031Z,27.33
2022-08-27T09:01:01.292Z,26.77
2022-08-27T09:03:30.081Z,27.03
2022-08-27T09:06:10.435Z,26.67
2022-08-27T09:08:42.424Z,26.86
2022-08-27T09:11:21.857Z,26.61
2022-08-27T09:13:57.299Z,26.65
2022-08-27T09:16:24.470Z,25.60
2022-08-27T09:18:54.607Z,27.10
2022-08-27T09:21:44.299Z,27.22
2022-08-27T09:24:37.180Z,25.76
2022-08-27T09:27:05.029Z,25.85
2022-08-27T09:29:32.429Z,25.32
2022-08-27T09:32:09.139Z,25.97
2022-08-27T09:34:42.600Z,25.20
2022-08-27T09:37:22.395Z,26.59
2022-08-27T09:40:13.298Z,25.67
2022-08-27T09:42:53.491Z,27.28
2022-08-27T09:45:25.252Z,25.61
2022-08-27T09:48:02.754Z,26.42
2022-08-27T09:50:43.919Z,25.96
2022-08-27T09:53:46.199Z,24.92
2022-08-27T09:56:39.390Z,24.80
2022-08-27T09:59:22.806Z,25.14
2022-08-27T10:02:16.927Z,25.69
2022-08-27T10:04:58.783Z,25.77
2022-08-27T10:07:38.092Z,25.31
2022-08-27T10:10:11.179Z,26.35
2022-08-27T10:13:22.128Z,24.71
2022-08-27T10:16:47.391Z,24.48
2022-08-27T10:19:44.225Z,24.77
2022-08-27T10:22:41.442Z,24.82
2022-08-27T10:25:41.350Z,24.77
2022-08-27T10:28:29.092Z,25.10
2022-08-27T10:31:21.364Z,25.32
2022-08-27T10:34:12.296Z,25.06
2022-08-27T10:37:07.922Z,24.70
2022-08-27T10:40:06.047Z,24.75
2022-08-27T10:43:02.470Z,24.38
2022-08-27T10:46:16.526Z,24.77
2022-08-27T10:48:57.938Z,24.89
2022-08-27T10:51:35.837Z,23.79
2022-08-27T10:54:26.653Z,24.17
2022-08-27T10:57:39.919Z,25.25
2022-08-27T11:00:23.426Z,24.42
2022-08-27T11:03:15.149Z,25.91
2022-08-27T11:05:50.578Z,25.81
2022-08-27T11:08:44.945Z,25.97
2022-08-27T11:12:10.445Z,26.06
2022-08-27T11:14:32.662Z,25.44
2022-08-27T11:17:34.851Z,25.11
2022-08-27T11:20:15.926Z,25.41
2022-08-27T11:22:56.645Z,25.15
2022-08-27T11:25:59.609Z,25.49
2022-08-27T11:28:52.799Z,24.97
2022-08-27T11:31:38.424Z,24.78
2022-08-27T11:34:40.162Z,24.25
2022-08-27T11:37:12.530Z,24.70
2022-08-27T11:39:51.740Z,25.02
2022-08-27T11:42:44.510Z,25.28
2022-08-27T11:45:29.871Z,24.67
2022-08-27T11:48:14.891Z,25.03
2022-08-27T11:50:52.788Z,24.33
2022-08-27T11:53:29.173Z,23.49
2022-08-27T11:55:56.784Z,23.30
2022-08-27T11:58:30.629Z,24.61
2022-08-27T12:01:04.504Z,24.56
2022-08-27T12:03:35.401Z,23.64
2022-08-27T12:06:09.484Z,23.97
2022-08-27T12:08:37.409Z,24.61
2022-08-27T12:11:41.819Z,24.94
2022-08-27T12:14:34.887Z,24.71
2022-08-27T12:17:32.555Z,24.26
2022-08-27T12:20:51.887Z,24.35
2022-08-27T12:23:42.825Z,24.38
2022-08-27T12:26:34.796Z,23.87
2022-08-27T12:29:31.385Z,24.28
2022-08-27T12:32:29.025Z,24.03
2022-08-27T12:35:16.822Z,23.81
2022-08-27T12:37:57.761Z,23.97
2022-08-27T12:40:38.385Z,23.83
2022-08-27T12:43:24.809Z,24.13
2022-08-27T12:46:02.280Z,23.22
2022-08-27T12:48:55.435Z,23.38
2022-08-27T12:51:33.786Z,23.74
2022-08-27T12:54:39.348Z,23.44
2022-08-27T12:57:37.555Z,23.35
2022-08-27T13:00:22.125Z,23.22
2022-08-27T13:03:31.283Z,24.00
2022-08-27T13:06:00.951Z,23.43
2022-08-27T13:08:35.150Z,23.84
2022-08-27T13:11:28.558Z,23.12
2022-08-27T13:14:16.634Z,23.48
2022-08-27T13:16:55.644Z,23.17
2022-08-27T13:19:29.969Z,22.32
2022-08-27T13:21:57.973Z,22.83
2022-08-27T13:24:44.990Z,22.53
2022-08-27T13:27:12.117Z,22.51
2022-08-27T13:29:40.942Z,21.90
2022-08-27T13:32:08.847Z,22.82
2022-08-27T13:34:41.074Z,23.05
2022-08-27T13:37:36.840Z,22.77
2022-08-27T13:40:04.980Z,22.88
2022-08-27T13:42:32.183Z,23.59
2022-08-27T13:45:05.895Z,23.51
2022-08-27T13:47:46.519Z,23.62
2022-08-27T13:50:30.230Z,23.40
2022-08-27T13:53:29.395Z,23.60
2022-08-27T13:55:58.834Z,23.47
2022-08-27T13:58:31.048Z,23.77
2022-08-27T14:01:31.393Z,23.50
2022-08-27T14:04:09.968Z,23.85
2022-08-27T14:06:45.304Z,23.92
2022-08-27T14:09:25.364Z,24.36
2022-08-27T14:12:06.545Z,23.40
2022-08-27T14:14:41.900Z,23.20
2022-08-27T14:17:29.709Z,23.28
2022-08-27T14:20:05.089Z,23.15
2022-08-27T14:22:36.483Z,23.35
2022-08-27T14:25:04.463Z,23.79
2022-08-27T14:27:32.073Z,23.15
2022-08-27T14:29:59.282Z,23.75
2022-08-27T14:32:26.405Z,23.66
2022-08-27T14:34:53.581Z,23.89
2022-08-27T14:37:20.720Z,23.78
2022-08-27T14:39:47.799Z,23.42
2022-08-27T14:42:15.188Z,24.11
2022-08-27T14:44:42.294Z,24.63
2022-08-27T14:47:11.383Z,24.56
2022-08-27T14:49:44.009Z,24.79
2022-08-27T14:52:13.431Z,24.79
2022-08-27T14:54:42.224Z,25.54
2022-08-27T14:57:10.039Z,25.18
2022-08-27T14:59:38.486Z,25.03
2022-08-27T15:02:11.051Z,25.11
2022-08-27T15:04:38.457Z,24.91
2022-08-27T15:07:06.511Z,25.50
2022-08-27T15:09:33.598Z,25.88
2022-08-27T15:12:00.684Z,24.27
2022-08-27T15:14:32.208Z,24.84
2022-08-27T15:17:00.505Z,25.21
2022-08-27T15:19:29.757Z,25.95
2022-08-27T15:22:16.812Z,25.71
2022-08-27T15:24:50.527Z,26.29
2022-08-27T15:27:17.659Z,25.91
2022-08-27T15:29:45.033Z,26.17
2022-08-27T15:32:34.461Z,25.76
2022-08-27T15:35:07.965Z,26.03
2022-08-27T15:37:35.799Z,26.22
2022-08-27T15:40:04.298Z,26.17
2022-08-27T15:42:31.399Z,26.35
2022-08-27T15:44:58.761Z,26.60
2022-08-27T15:47:26.353Z,26.85
2022-08-27T15:49:53.470Z,27.32
2022-08-27T15:52:22.255Z,27.14
2022-08-27T15:54:50.192Z,27.31
2022-08-27T15:57:19.615Z,26.94
2022-08-27T15:59:47.112Z,27.34
2022-08-27T16:02:22.049Z,27.68
2022-08-27T16:04:49.942Z,27.70
2022-08-27T16:07:20.152Z,28.04
2022-08-27T16:09:49.433Z,28.23
2022-08-27T16:12:26.900Z,28.54
2022-08-27T16:14:56.057Z,27.96
2022-08-27T16:17:23.833Z,28.65
2022-08-27T16:19:50.877Z,28.60
2022-08-27T16:22:17.909Z,28.51
2022-08-27T16:24:45.251Z,28.64
2022-08-27T16:27:12.351Z,28.84
2022-08-27T16:29:39.514Z,28.73
2022-08-27T16:32:11.392Z,28.89
2022-08-27T16:34:39.392Z,29.04
2022-08-27T16:37:06.417Z,29.19
2022-08-27T16:39:36.403Z,29.31
2022-08-27T16:42:10.150Z,29.70
2022-08-27T16:44:38.640Z,29.25
2022-08-27T16:47:08.764Z,29.33
2022-08-27T16:49:54.717Z,29.39
2022-08-27T16:52:23.573Z,30.00
2022-08-27T16:54:51.978Z,30.25
2022-08-27T16:57:19.430Z,29.95
2022-08-27T16:59:46.520Z,30.32
2022-08-27T17:02:30.103Z,30.25
2022-08-27T17:05:17.723Z,30.76
2022-08-27T17:07:48.796Z,30.60
2022-08-27T17:10:18.469Z,30.79
2022-08-27T17:12:47.167Z,30.52
2022-08-27T17:15:16.820Z,31.30
2022-08-27T17:17:44.539Z,31.41
2022-08-27T17:20:12.115Z,31.67
2022-08-27T17:22:39.466Z,31.67
2022-08-27T17:25:08.260Z,31.66
2022-08-27T17:27:35.498Z,31.88
2022-08-27T17:30:02.689Z,33.05
2022-08-27T17:32:34.835Z,32.52
2022-08-27T17:35:05.887Z,32.46
2022-08-27T17:37:34.038Z,32.32
2022-08-27T17:40:01.554Z,32.13
2022-08-27T17:42:29.631Z,32.37
2022-08-27T17:44:57.439Z,32.82
2022-08-27T17:47:25.090Z,32.75
2022-08-27T17:49:52.993Z,32.92
2022-08-27T17:52:20.824Z,32.92
2022-08-27T17:54:52.581Z,33.51
2022-08-27T17:57:41.338Z,33.40
2022-08-27T18:00:12.661Z,33.73
2022-08-27T18:02:47.508Z,33.54
2022-08-27T18:05:18.332Z,33.06
2022-08-27T18:07:46.615Z,33.33
2022-08-27T18:10:23.773Z,33.23
2022-08-27T18:12:55.569Z,33.59
2022-08-27T18:15:29.572Z,33.75
2022-08-27T18:17:57.980Z,33.44
2022-08-27T18:20:28.821Z,33.41
2022-08-27T18:22:56.667Z,33.54
2022-08-27T18:25:26.649Z,33.96
2022-08-27T18:27:58.609Z,33.65
2022-08-27T18:30:26.447Z,33.55
2022-08-27T18:32:54.081Z,33.70
2022-08-27T18:35:29.020Z,33.80
2022-08-27T18:37:56.525Z,33.83
2022-08-27T18:40:28.156Z,33.94
2022-08-27T18:42:56.346Z,33.77
2022-08-27T18:45:28.566Z,34.04
2022-08-27T18:47:59.215Z,34.30
2022-08-27T18:50:27.048Z,34.14
2022-08-27T18:52:56.727Z,33.87
2022-08-27T18:55:28.285Z,34.59
2022-08-27T18:57:55.560Z,34.56
2022-08-27T19:00:22.880Z,34.63
2022-08-27T19:02:52.681Z,34.77
2022-08-27T19:05:26.693Z,34.36
2022-08-27T19:07:54.997Z,34.51
2022-08-27T19:10:22.152Z,34.78
2022-08-27T19:12:49.317Z,34.84
2022-08-27T19:15:16.888Z,34.89
2022-08-27T19:17:50.838Z,34.92
2022-08-27T19:20:18.755Z,34.85
2022-08-27T19:22:47.245Z,34.85
2022-08-27T19:25:15.986Z,35.15
2022-08-27T19:27:45.179Z,35.25
2022-08-27T19:30:14.440Z,35.41
2022-08-27T19:32:41.683Z,35.73
2022-08-27T19:35:09.997Z,35.87
2022-08-27T19:37:43.573Z,35.87
2022-08-27T19:40:13.322Z,35.89
2022-08-27T19:42:41.555Z,36.07
2022-08-27T19:45:09.072Z,36.41
2022-08-27T19:47:37.592Z,36.04
2022-08-27T19:50:05.398Z,36.09
2022-08-27T19:52:32.410Z,36.29
2022-08-27T19:55:14.959Z,36.08
2022-08-27T19:57:43.440Z,36.33
2022-08-27T20:00:14.290Z,36.83
2022-08-27T20:02:41.255Z,36.65
2022-08-27T20:05:24.125Z,36.79
2022-08-27T20:07:52.840Z,37.05
2022-08-27T20:10:25.872Z,36.86
2022-08-27T20:12:59.635Z,37.44
2022-08-27T20:15:27.176Z,37.10
2022-08-27T20:17:54.655Z,37.55
2022-08-27T20:20:24.725Z,37.27
2022-08-27T20:22:52.480Z,37.19
2022-08-27T20:25:19.813Z,37.26
2022-08-27T20:27:47.713Z,37.40
2022-08-27T20:30:17.555Z,37.68
2022-08-27T20:32:46.774Z,37.84
2022-08-27T20:35:15.280Z,37.70
2022-08-27T20:37:42.797Z,38.00
2022-08-27T20:40:20.038Z,37.98
2022-08-27T20:42:47.189Z,37.96
2022-08-27T20:45:15.930Z,37.99
2022-08-27T20:47:46.007Z,38.05
2022-08-27T20:50:15.123Z,37.79
2022-08-27T20:52:44.758Z,38.12
2022-08-27T20:55:14.247Z,38.19
2022-08-27T20:58:05.819Z,38.26
2022-08-27T21:00:35.605Z,38.17
2022-08-27T21:03:02.831Z,38.07
2022-08-27T21:05:34.508Z,38.15
2022-08-27T21:08:03.694Z,37.78
2022-08-27T21:10:30.835Z,38.19
2022-08-27T21:12:58.307Z,38.04
2022-08-27T21:15:25.647Z,38.19
2022-08-27T21:17:52.776Z,38.22
2022-08-27T21:20:19.866Z,38.83
2022-08-27T21:22:46.875Z,38.44
2022-08-27T21:25:14.659Z,38.39
2022-08-27T21:27:44.648Z,38.64
2022-08-27T21:30:12.806Z,39.14
2022-08-27T21:32:39.799Z,39.48
2022-08-27T21:35:07.222Z,39.35
2022-08-27T21:37:35.472Z,39.10
2022-08-27T21:40:05.113Z,38.75
2022-08-27T21:42:32.280Z,39.12
2022-08-27T21:44:59.261Z,39.35
2022-08-27T21:47:26.747Z,39.27
2022-08-27T21:49:53.765Z,38.71
2022-08-27T21:52:20.793Z,38.83
2022-08-27T21:54:47.777Z,39.53
2022-08-27T21:57:15.808Z,39.23
2022-08-27T21:59:48.170Z,39.04
2022-08-27T22:02:38.892Z,39.76
2022-08-27T22:05:05.142Z,39.45
2022-08-27T22:07:32.153Z,39.25
2022-08-27T22:09:59.229Z,39.44
2022-08-27T22:12:26.418Z,39.18
2022-08-27T22:14:53.526Z,39.25
2022-08-27T22:17:20.518Z,39.24
2022-08-27T22:19:47.504Z,39.42
2022-08-27T22:22:14.552Z,39.41
2022-08-27T22:24:43.181Z,39.48
2022-08-27T22:27:10.604Z,39.46
2022-08-27T22:29:37.665Z,39.96
2022-08-27T22:32:07.593Z,39.77
2022-08-27T22:34:36.169Z,39.99
2022-08-27T22:37:04.321Z,39.62
2022-08-27T22:39:31.512Z,39.69
2022-08-27T22:41:58.745Z,40.02
2022-08-27T22:44:29.365Z,40.46
2022-08-27T22:46:57.172Z,40.42
2022-08-27T22:49:24.352Z,39.99
2022-08-27T22:51:51.401Z,40.41
2022-08-27T22:54:18.994Z,40.30
2022-08-27T22:56:46.103Z,40.54
2022-08-27T22:59:13.386Z,40.30
2022-08-27T23:01:41.195Z,40.76
2022-08-27T23:04:08.642Z,40.97
2022-08-27T23:06:35.768Z,40.97
2022-08-27T23:09:02.918Z,41.09
2022-08-27T23:11:31.853Z,40.99
2022-08-27T23:14:02.178Z,41.61
2022-08-27T23:16:31.844Z,41.43
2022-08-27T23:18:59.003Z,41.43
2022-08-27T23:21:26.363Z,41.56
2022-08-27T23:23:53.382Z,41.29
2022-08-27T23:26:39.378Z,41.89
2022-08-27T23:29:07.358Z,41.64
2022-08-27T23:31:34.689Z,42.33
2022-08-27T23:34:01.766Z,41.80
2022-08-27T23:36:29.378Z,41.93
2022-08-27T23:38:58.316Z,41.74
2022-08-27T23:41:26.905Z,42.37
2022-08-27T23:43:54.373Z,42.15
2022-08-27T23:46:21.620Z,42.17
2022-08-27T23:48:48.713Z,42.47
2022-08-27T23:51:15.806Z,42.46
2022-08-27T23:53:42.856Z,42.13
2022-08-27T23:56:10.781Z,42.73
2022-08-27T23:58:37.828Z,42.68
